createdAt,value
2019-02-14T00:00:04.906Z,8.06
2019-02-14T00:01:56.719Z,8.14
2019-02-14T00:02:56.604Z,8.10
2019-02-14T00:04:48.422Z,8.07
2019-02-14T00:05:48.358Z,8.10
2019-02-14T00:07:40.237Z,8.07
2019-02-14T00:08:40.188Z,8.10
2019-02-14T00:10:32.037Z,8.14
2019-02-14T00:11:31.865Z,8.10
2019-02-14T00:13:23.669Z,8.00
2019-02-14T00:14:23.534Z,8.12
2019-02-14T00:16:15.313Z,8.06
2019-02-14T00:17:15.249Z,8.10
2019-02-14T00:19:07.102Z,8.09
2019-02-14T00:20:07.032Z,8.13
2019-02-14T00:21:59.968Z,8.13
2019-02-14T00:22:59.871Z,8.12
2019-02-14T00:24:51.677Z,8.12
2019-02-14T00:25:51.618Z,8.12
2019-02-14T00:27:44.406Z,8.07
2019-02-14T00:28:44.337Z,8.10
2019-02-14T00:30:36.164Z,8.07
2019-02-14T00:31:36.065Z,8.13
2019-02-14T00:33:28.857Z,8.07
2019-02-14T00:34:28.783Z,8.17
2019-02-14T00:36:20.595Z,8.10
2019-02-14T00:37:20.531Z,8.12
2019-02-14T00:39:12.251Z,8.13
2019-02-14T00:40:12.207Z,8.13
2019-02-14T00:42:04.935Z,8.07
2019-02-14T00:43:04.863Z,7.96
2019-02-14T00:44:57.675Z,8.06
2019-02-14T00:45:57.750Z,8.02
2019-02-14T00:47:49.421Z,8.07
2019-02-14T00:48:49.259Z,8.13
2019-02-14T00:50:42.086Z,8.14
2019-02-14T00:51:41.960Z,8.07
2019-02-14T00:53:34.732Z,8.13
2019-02-14T00:54:34.677Z,8.06
2019-02-14T00:56:27.426Z,8.14
2019-02-14T00:57:27.344Z,8.10
2019-02-14T00:59:19.258Z,8.04
2019-02-14T01:00:19.180Z,8.12
2019-02-14T01:02:10.973Z,8.09
2019-02-14T01:03:10.886Z,8.04
2019-02-14T01:05:02.741Z,8.12
2019-02-14T01:06:02.661Z,8.02
2019-02-14T01:07:55.477Z,8.02
2019-02-14T01:08:55.388Z,8.00
2019-02-14T01:10:48.201Z,8.07
2019-02-14T01:11:48.082Z,8.07
2019-02-14T01:13:39.871Z,7.99
2019-02-14T01:14:39.847Z,8.10
2019-02-14T01:16:31.852Z,7.96
2019-02-14T01:17:31.769Z,8.09
2019-02-14T01:19:23.665Z,8.06
2019-02-14T01:20:23.550Z,8.14
2019-02-14T01:22:16.373Z,8.04
2019-02-14T01:23:16.273Z,8.04
2019-02-14T01:25:08.330Z,8.09
2019-02-14T01:26:08.020Z,8.03
2019-02-14T01:28:00.801Z,8.09
2019-02-14T01:29:00.711Z,8.12
2019-02-14T01:30:53.502Z,8.20
2019-02-14T01:31:53.401Z,8.04
2019-02-14T01:33:45.294Z,8.02
2019-02-14T01:34:45.237Z,7.99
2019-02-14T01:36:38.032Z,7.96
2019-02-14T01:37:37.904Z,7.99
2019-02-14T01:39:30.676Z,8.02
2019-02-14T01:40:30.779Z,8.03
2019-02-14T01:42:23.397Z,7.96
2019-02-14T01:43:23.413Z,7.99
2019-02-14T01:45:16.093Z,8.02
2019-02-14T01:46:16.024Z,8.04
2019-02-14T01:48:08.877Z,8.06
2019-02-14T01:49:08.760Z,7.94
2019-02-14T01:51:00.658Z,8.03
2019-02-14T01:52:00.674Z,8.00
2019-02-14T01:53:52.861Z,7.96
2019-02-14T01:54:52.750Z,7.96
2019-02-14T01:56:59.549Z,7.99
2019-02-14T01:57:59.462Z,8.03
2019-02-14T01:59:51.222Z,8.00
2019-02-14T02:00:51.162Z,7.96
2019-02-14T02:02:44.119Z,8.03
2019-02-14T02:03:43.861Z,7.99
2019-02-14T02:05:36.653Z,7.96
2019-02-14T02:06:36.604Z,7.99
2019-02-14T02:08:29.348Z,8.03
2019-02-14T02:09:29.282Z,7.88
2019-02-14T02:11:22.099Z,7.88
2019-02-14T02:12:22.026Z,7.99
2019-02-14T02:14:14.426Z,8.00
2019-02-14T02:15:13.889Z,7.99
2019-02-14T02:17:06.634Z,8.00
2019-02-14T02:18:06.597Z,7.95
2019-02-14T02:19:59.432Z,7.99
2019-02-14T02:20:59.280Z,7.99
2019-02-14T02:22:51.136Z,7.94
2019-02-14T02:23:51.041Z,7.92
2019-02-14T02:25:42.926Z,8.04
2019-02-14T02:26:42.858Z,8.00
2019-02-14T02:28:35.740Z,7.95
2019-02-14T02:29:35.545Z,8.00
2019-02-14T02:31:27.316Z,7.99
2019-02-14T02:32:27.232Z,8.02
2019-02-14T02:34:19.976Z,8.00
2019-02-14T02:35:19.898Z,7.95
2019-02-14T02:37:12.819Z,8.02
2019-02-14T02:38:12.701Z,7.99
2019-02-14T02:40:04.512Z,7.95
2019-02-14T02:41:04.471Z,7.92
2019-02-14T02:42:57.241Z,7.94
2019-02-14T02:43:57.218Z,7.92
2019-02-14T02:45:48.911Z,7.94
2019-02-14T02:46:48.866Z,7.85
2019-02-14T02:48:41.205Z,7.86
2019-02-14T02:49:40.799Z,7.94
2019-02-14T02:51:32.655Z,7.89
2019-02-14T02:52:32.552Z,7.92
2019-02-14T02:54:25.354Z,7.96
2019-02-14T02:55:25.224Z,7.95
2019-02-14T02:57:17.974Z,7.96
2019-02-14T02:58:17.885Z,7.92
2019-02-14T03:00:09.738Z,8.02
2019-02-14T03:01:09.628Z,7.95
2019-02-14T03:03:01.434Z,7.96
2019-02-14T03:04:01.325Z,7.88
2019-02-14T03:05:54.135Z,7.95
2019-02-14T03:06:54.069Z,7.99
2019-02-14T03:08:45.866Z,7.99
2019-02-14T03:09:45.778Z,7.99
2019-02-14T03:11:37.670Z,7.99
2019-02-14T03:12:37.595Z,8.02
2019-02-14T03:14:30.376Z,7.99
2019-02-14T03:15:30.294Z,7.96
2019-02-14T03:17:23.067Z,8.02
2019-02-14T03:18:22.988Z,8.04
2019-02-14T03:20:15.788Z,8.02
2019-02-14T03:21:15.714Z,7.99
2019-02-14T03:23:08.640Z,7.92
2019-02-14T03:24:08.468Z,7.89
2019-02-14T03:26:01.285Z,7.95
2019-02-14T03:27:01.229Z,7.95
2019-02-14T03:28:53.991Z,8.00
2019-02-14T03:29:53.902Z,7.96
2019-02-14T03:31:46.782Z,7.99
2019-02-14T03:32:46.641Z,7.95
2019-02-14T03:34:39.415Z,7.88
2019-02-14T03:35:39.328Z,7.96
2019-02-14T03:37:31.226Z,7.86
2019-02-14T03:38:31.197Z,7.88
2019-02-14T03:40:23.131Z,7.86
2019-02-14T03:41:23.025Z,7.89
2019-02-14T03:43:15.024Z,7.88
2019-02-14T03:44:14.785Z,7.96
2019-02-14T03:46:07.581Z,7.86
2019-02-14T03:47:07.559Z,7.81
2019-02-14T03:49:00.331Z,7.86
2019-02-14T03:50:00.282Z,7.74
2019-02-14T03:51:52.985Z,7.76
2019-02-14T03:52:52.909Z,7.69
2019-02-14T03:54:45.688Z,7.69
2019-02-14T03:55:45.633Z,7.71
2019-02-14T03:57:37.425Z,7.66
2019-02-14T03:58:37.353Z,7.63
2019-02-14T04:00:30.192Z,7.69
2019-02-14T04:01:30.122Z,7.57
2019-02-14T04:03:21.999Z,7.48
2019-02-14T04:04:21.962Z,7.57
2019-02-14T04:06:13.769Z,7.45
2019-02-14T04:07:13.678Z,7.39
2019-02-14T04:09:06.688Z,7.42
2019-02-14T04:10:06.611Z,7.45
2019-02-14T04:11:58.476Z,7.47
2019-02-14T04:12:58.387Z,7.50
2019-02-14T04:14:51.181Z,7.50
2019-02-14T04:15:51.056Z,7.42
2019-02-14T04:17:43.883Z,7.37
2019-02-14T04:18:43.846Z,7.44
2019-02-14T04:20:35.700Z,7.41
2019-02-14T04:21:35.861Z,7.42
2019-02-14T04:23:27.570Z,7.50
2019-02-14T04:24:27.498Z,7.37
2019-02-14T04:26:19.503Z,7.44
2019-02-14T04:27:19.415Z,7.44
2019-02-14T04:29:11.403Z,7.47
2019-02-14T04:30:11.299Z,7.48
2019-02-14T04:32:03.258Z,7.45
2019-02-14T04:33:03.189Z,7.48
2019-02-14T04:34:55.002Z,7.48
2019-02-14T04:35:54.988Z,7.48
2019-02-14T04:37:47.778Z,7.51
2019-02-14T04:38:47.689Z,7.50
2019-02-14T04:40:39.481Z,7.54
2019-02-14T04:41:39.413Z,7.52
2019-02-14T04:43:31.281Z,7.57
2019-02-14T04:44:31.167Z,7.54
2019-02-14T04:46:24.185Z,7.62
2019-02-14T04:47:24.008Z,7.50
2019-02-14T04:49:16.805Z,7.57
2019-02-14T04:50:16.716Z,7.63
2019-02-14T04:52:09.596Z,7.66
2019-02-14T04:53:09.467Z,7.63
2019-02-14T04:55:01.196Z,7.55
2019-02-14T04:56:01.115Z,7.69
2019-02-14T04:57:53.910Z,7.62
2019-02-14T04:58:53.833Z,7.69
2019-02-14T05:00:45.795Z,7.66
2019-02-14T05:01:45.645Z,7.67
2019-02-14T05:03:38.502Z,7.62
2019-02-14T05:04:38.350Z,7.62
2019-02-14T05:06:30.515Z,7.60
2019-02-14T05:07:30.481Z,7.62
2019-02-14T05:09:23.175Z,7.74
2019-02-14T05:10:23.099Z,7.66
2019-02-14T05:12:14.994Z,7.57
2019-02-14T05:13:14.935Z,7.62
2019-02-14T05:15:07.747Z,7.63
2019-02-14T05:16:07.761Z,7.63
2019-02-14T05:18:00.471Z,7.71
2019-02-14T05:19:00.381Z,7.70
2019-02-14T05:20:53.313Z,7.67
2019-02-14T05:21:53.165Z,7.66
2019-02-14T05:23:46.027Z,7.69
2019-02-14T05:24:45.987Z,7.63
2019-02-14T05:26:38.723Z,7.58
2019-02-14T05:27:38.690Z,7.69
2019-02-14T05:29:30.603Z,7.63
2019-02-14T05:30:30.545Z,7.74
2019-02-14T05:32:22.328Z,7.67
2019-02-14T05:33:22.263Z,7.70
2019-02-14T05:35:14.190Z,7.77
2019-02-14T05:36:14.101Z,7.73
2019-02-14T05:38:07.063Z,7.74
2019-02-14T05:39:06.994Z,7.73
2019-02-14T05:40:59.869Z,7.71
2019-02-14T05:41:59.773Z,7.73
2019-02-14T05:43:51.626Z,7.70
2019-02-14T05:44:51.518Z,7.67
2019-02-14T05:46:44.418Z,7.73
2019-02-14T05:47:44.260Z,7.69
2019-02-14T05:49:36.968Z,7.76
2019-02-14T05:50:36.909Z,7.73
2019-02-14T05:52:29.874Z,7.74
2019-02-14T05:53:29.657Z,7.69
2019-02-14T05:55:22.476Z,7.81
2019-02-14T05:56:22.363Z,7.84
2019-02-14T05:58:14.145Z,7.77
2019-02-14T05:59:14.101Z,7.79
2019-02-14T06:01:06.968Z,7.77
2019-02-14T06:02:06.860Z,7.77
2019-02-14T06:03:59.602Z,7.74
2019-02-14T06:04:59.545Z,7.76
2019-02-14T06:06:52.398Z,7.71
2019-02-14T06:07:52.276Z,7.71
2019-02-14T06:09:45.043Z,7.73
2019-02-14T06:10:45.102Z,7.73
2019-02-14T06:12:36.828Z,7.71
2019-02-14T06:13:36.734Z,7.70
2019-02-14T06:15:29.538Z,7.73
2019-02-14T06:16:29.499Z,7.84
2019-02-14T06:18:22.271Z,7.82
2019-02-14T06:19:22.162Z,7.82
2019-02-14T06:21:14.973Z,7.79
2019-02-14T06:22:14.880Z,7.77
2019-02-14T06:24:06.769Z,7.84
2019-02-14T06:25:06.687Z,7.82
2019-02-14T06:26:59.482Z,7.82
2019-02-14T06:27:59.435Z,7.73
2019-02-14T06:29:51.276Z,7.82
2019-02-14T06:30:51.210Z,7.79
2019-02-14T06:32:44.034Z,7.79
2019-02-14T06:33:44.388Z,7.76
2019-02-14T06:35:37.100Z,7.79
2019-02-14T06:36:36.695Z,7.81
2019-02-14T06:38:29.134Z,7.82
2019-02-14T06:39:29.060Z,7.86
2019-02-14T06:41:21.853Z,7.81
2019-02-14T06:42:21.762Z,7.82
2019-02-14T06:44:13.706Z,7.86
2019-02-14T06:45:13.635Z,7.81
2019-02-14T06:47:06.447Z,7.81
2019-02-14T06:48:06.338Z,7.76
2019-02-14T06:49:59.145Z,7.86
2019-02-14T06:50:59.023Z,7.96
2019-02-14T06:52:51.820Z,7.95
2019-02-14T06:53:51.710Z,8.00
2019-02-14T06:55:44.483Z,7.95
2019-02-14T06:56:44.406Z,7.92
2019-02-14T06:58:37.170Z,7.89
2019-02-14T06:59:37.088Z,7.95
2019-02-14T07:01:29.859Z,7.92
2019-02-14T07:02:29.775Z,7.86
2019-02-14T07:04:22.546Z,7.94
2019-02-14T07:05:23.222Z,7.91
2019-02-14T07:07:18.630Z,7.92
2019-02-14T07:08:15.155Z,7.96
2019-02-14T07:10:07.094Z,7.95
2019-02-14T07:11:07.022Z,7.92
2019-02-14T07:12:59.843Z,7.94
2019-02-14T07:13:59.729Z,7.94
2019-02-14T07:15:52.537Z,7.89
2019-02-14T07:16:52.423Z,7.92
2019-02-14T07:18:45.226Z,7.96
2019-02-14T07:19:45.137Z,8.03
2019-02-14T07:21:37.899Z,7.99
2019-02-14T07:22:37.820Z,7.99
2019-02-14T07:24:29.621Z,8.02
2019-02-14T07:25:29.543Z,8.00
2019-02-14T07:27:22.339Z,8.09
2019-02-14T07:28:22.256Z,8.12
2019-02-14T07:30:14.170Z,8.09
2019-02-14T07:31:14.153Z,8.06
2019-02-14T07:33:06.004Z,8.06
2019-02-14T07:34:05.927Z,8.10
2019-02-14T07:35:57.864Z,8.18
2019-02-14T07:36:57.788Z,8.13
2019-02-14T07:38:50.554Z,8.02
2019-02-14T07:39:50.467Z,8.06
2019-02-14T07:41:43.288Z,8.12
2019-02-14T07:42:43.167Z,8.10
2019-02-14T07:44:34.992Z,8.17
2019-02-14T07:45:34.930Z,8.17
2019-02-14T07:47:27.696Z,8.17
2019-02-14T07:48:27.618Z,8.17
2019-02-14T07:50:20.417Z,8.20
2019-02-14T07:51:20.351Z,8.24
2019-02-14T07:53:13.128Z,8.20
2019-02-14T07:54:13.053Z,8.29
2019-02-14T07:56:05.812Z,8.27
2019-02-14T07:57:05.740Z,8.34
2019-02-14T07:58:58.518Z,8.34
2019-02-14T07:59:58.434Z,8.32
2019-02-14T08:01:51.200Z,8.32
2019-02-14T08:02:51.122Z,8.31
2019-02-14T08:04:43.886Z,8.36
2019-02-14T08:05:43.826Z,8.28
2019-02-14T08:07:36.613Z,8.36
2019-02-14T08:08:36.513Z,8.43
2019-02-14T08:10:28.398Z,8.55
2019-02-14T08:11:28.323Z,8.54
2019-02-14T08:13:21.101Z,8.49
2019-02-14T08:14:21.023Z,8.52
2019-02-14T08:16:12.943Z,8.47
2019-02-14T08:17:12.876Z,8.52
2019-02-14T08:19:04.700Z,8.57
2019-02-14T08:20:04.618Z,8.60
2019-02-14T08:21:57.466Z,8.63
2019-02-14T08:22:57.306Z,8.65
2019-02-14T08:24:50.079Z,8.67
2019-02-14T08:25:49.997Z,8.65
2019-02-14T08:27:42.812Z,8.67
2019-02-14T08:28:42.705Z,8.63
2019-02-14T08:30:35.453Z,8.75
2019-02-14T08:31:35.410Z,8.70
2019-02-14T08:33:27.189Z,8.67
2019-02-14T08:34:27.110Z,8.82
2019-02-14T08:36:19.107Z,8.93
2019-02-14T08:37:19.042Z,8.88
2019-02-14T08:39:11.820Z,8.97
2019-02-14T08:40:11.733Z,9.00
2019-02-14T08:42:03.506Z,8.97
2019-02-14T08:43:03.453Z,9.04
2019-02-14T08:44:55.181Z,9.12
2019-02-14T08:45:55.091Z,9.15
2019-02-14T08:47:46.896Z,9.10
2019-02-14T08:48:46.804Z,9.10
2019-02-14T08:50:38.559Z,9.08
2019-02-14T08:51:38.540Z,9.17
2019-02-14T08:53:30.290Z,9.10
2019-02-14T08:54:30.208Z,9.04
2019-02-14T08:56:21.997Z,9.22
2019-02-14T08:57:21.918Z,9.22
2019-02-14T08:59:13.801Z,9.27
2019-02-14T09:00:13.822Z,9.35
2019-02-14T09:03:44.850Z,9.56
2019-02-14T09:04:44.750Z,9.56
2019-02-14T09:06:36.568Z,9.56
2019-02-14T09:07:36.502Z,9.71
2019-02-14T09:09:28.272Z,9.63
2019-02-14T09:10:28.182Z,9.68
2019-02-14T09:12:20.988Z,9.67
2019-02-14T09:13:20.884Z,9.80
2019-02-14T09:15:12.980Z,9.80
2019-02-14T09:16:12.727Z,9.81
2019-02-14T09:18:04.570Z,9.89
2019-02-14T09:19:05.089Z,10.13
2019-02-14T09:20:56.194Z,10.28
2019-02-14T09:21:56.157Z,10.31
2019-02-14T09:23:48.043Z,10.36
2019-02-14T09:24:47.908Z,10.52
2019-02-14T09:26:39.839Z,10.47
2019-02-14T09:27:39.778Z,10.69
2019-02-14T09:29:31.623Z,10.95
2019-02-14T09:30:31.683Z,10.94
2019-02-14T09:32:23.314Z,10.86
2019-02-14T09:33:23.227Z,10.80
2019-02-14T09:35:15.049Z,10.91
2019-02-14T09:36:14.980Z,10.95
2019-02-14T09:38:06.799Z,10.87
2019-02-14T09:39:06.724Z,10.88
2019-02-14T09:40:58.539Z,10.60
2019-02-14T09:41:58.497Z,10.73
2019-02-14T09:43:50.842Z,10.75
2019-02-14T09:44:50.749Z,10.70
2019-02-14T09:46:42.540Z,10.78
2019-02-14T09:47:42.432Z,10.81
2019-02-14T09:49:34.219Z,10.65
2019-02-14T09:50:34.164Z,10.63
2019-02-14T09:52:25.943Z,10.76
2019-02-14T09:53:25.855Z,10.76
2019-02-14T09:55:17.717Z,10.75
2019-02-14T09:56:17.674Z,10.76
2019-02-14T09:58:09.481Z,10.93
2019-02-14T09:59:09.393Z,10.88
2019-02-14T10:01:01.221Z,11.01
2019-02-14T10:02:01.172Z,11.02
2019-02-14T10:03:52.937Z,11.19
2019-02-14T10:04:52.841Z,11.20
2019-02-14T10:06:44.626Z,11.35
2019-02-14T10:07:44.561Z,11.49
2019-02-14T10:09:36.548Z,11.81
2019-02-14T10:10:36.709Z,12.11
2019-02-14T10:12:28.174Z,12.22
2019-02-14T10:13:28.089Z,12.29
2019-02-14T10:15:19.852Z,12.61
2019-02-14T10:16:19.774Z,12.77
2019-02-14T10:18:11.552Z,12.99
2019-02-14T10:19:11.488Z,13.10
2019-02-14T10:21:03.240Z,13.39
2019-02-14T10:22:03.175Z,13.72
2019-02-14T10:23:55.035Z,14.13
2019-02-14T10:24:54.873Z,14.54
2019-02-14T10:26:46.789Z,14.74
2019-02-14T10:27:46.724Z,14.75
2019-02-14T10:29:39.503Z,14.41
2019-02-14T10:30:40.239Z,14.20
2019-02-14T10:32:32.205Z,13.68
2019-02-14T10:33:32.119Z,13.36
2019-02-14T10:35:23.896Z,13.03
2019-02-14T10:36:23.841Z,13.06
2019-02-14T10:38:22.042Z,12.77
2019-02-14T10:39:15.702Z,12.54
2019-02-14T10:41:07.465Z,12.37
2019-02-14T10:42:07.399Z,12.37
2019-02-14T10:43:59.535Z,12.23
2019-02-14T10:44:59.455Z,12.25
2019-02-14T10:46:51.212Z,12.19
2019-02-14T10:47:51.153Z,12.15
2019-02-14T10:49:42.939Z,11.84
2019-02-14T10:50:42.857Z,11.59
2019-02-14T10:52:34.794Z,11.87
2019-02-14T10:53:34.738Z,11.77
2019-02-14T10:55:26.522Z,12.07
2019-02-14T10:56:26.464Z,12.43
2019-02-14T10:58:18.353Z,12.43
2019-02-14T10:59:18.272Z,12.22
2019-02-14T11:01:10.071Z,12.26
2019-02-14T11:02:09.962Z,12.80
2019-02-14T11:04:01.726Z,12.70
2019-02-14T11:05:01.660Z,12.98
2019-02-14T11:06:53.663Z,12.99
2019-02-14T11:07:53.481Z,13.19
2019-02-14T11:09:45.319Z,13.35
2019-02-14T11:10:45.275Z,13.35
2019-02-14T11:12:37.097Z,12.92
2019-02-14T11:13:37.031Z,12.89
2019-02-14T11:15:28.888Z,12.54
2019-02-14T11:16:28.800Z,12.52
2019-02-14T11:18:20.578Z,12.38
2019-02-14T11:19:20.490Z,12.36
2019-02-14T11:21:12.311Z,12.25
2019-02-14T11:22:12.242Z,12.23
2019-02-14T11:24:04.234Z,12.16
2019-02-14T11:25:04.199Z,11.94
2019-02-14T11:26:56.809Z,11.74
2019-02-14T11:27:56.730Z,11.81
2019-02-14T11:29:48.494Z,11.78
2019-02-14T11:30:48.415Z,11.62
2019-02-14T11:32:40.244Z,11.44
2019-02-14T11:33:40.207Z,11.44
2019-02-14T11:35:32.043Z,11.42
2019-02-14T11:36:31.965Z,11.44
2019-02-14T11:38:23.779Z,11.42
2019-02-14T11:39:23.710Z,11.42
2019-02-14T11:41:15.496Z,11.36
2019-02-14T11:42:15.410Z,11.39
2019-02-14T11:44:07.203Z,11.46
2019-02-14T11:45:07.093Z,11.39
2019-02-14T11:46:58.924Z,11.42
2019-02-14T11:47:58.859Z,11.48
2019-02-14T11:49:50.648Z,11.63
2019-02-14T11:50:50.559Z,11.64
2019-02-14T11:52:42.318Z,11.70
2019-02-14T11:53:42.318Z,11.75
2019-02-14T11:55:34.069Z,11.56
2019-02-14T11:56:33.996Z,11.45
2019-02-14T11:58:26.747Z,11.45
2019-02-14T11:59:26.684Z,11.45
2019-02-14T12:01:19.523Z,11.41
2019-02-14T12:02:19.441Z,11.39
2019-02-14T12:04:11.225Z,11.48
2019-02-14T12:05:11.138Z,11.46
2019-02-14T12:07:02.890Z,11.48
2019-02-14T12:08:02.826Z,11.39
2019-02-14T12:09:54.590Z,11.38
2019-02-14T12:10:54.498Z,11.33
2019-02-14T12:12:46.556Z,11.24
2019-02-14T12:13:46.503Z,11.31
2019-02-14T12:15:38.269Z,11.20
2019-02-14T12:16:38.187Z,11.20
2019-02-14T12:18:29.944Z,11.28
2019-02-14T12:19:29.880Z,11.31
2019-02-14T12:21:21.650Z,11.33
2019-02-14T12:22:21.579Z,11.33
2019-02-14T12:24:13.321Z,11.26
2019-02-14T12:25:13.260Z,11.30
2019-02-14T12:27:05.058Z,11.23
2019-02-14T12:28:04.938Z,11.20
2019-02-14T12:29:57.717Z,11.12
2019-02-14T12:30:57.643Z,11.19
2019-02-14T12:32:49.412Z,11.12
2019-02-14T12:33:49.335Z,11.19
2019-02-14T12:35:41.103Z,11.19
2019-02-14T12:36:41.024Z,11.30
2019-02-14T12:38:32.840Z,11.26
2019-02-14T12:39:32.768Z,11.26
2019-02-14T12:41:24.628Z,11.33
2019-02-14T12:42:24.560Z,11.35
2019-02-14T12:44:16.850Z,11.27
2019-02-14T12:45:21.631Z,11.39
2019-02-14T12:47:08.500Z,11.38
2019-02-14T12:48:08.450Z,11.35
2019-02-14T12:50:00.339Z,11.38
2019-02-14T12:51:00.116Z,11.42
2019-02-14T12:52:52.917Z,11.39
2019-02-14T12:53:52.844Z,11.28
2019-02-14T12:55:44.923Z,11.35
2019-02-14T12:56:44.841Z,11.36
2019-02-14T12:58:36.599Z,11.41
2019-02-14T12:59:36.539Z,11.36
2019-02-14T13:01:28.358Z,11.30
2019-02-14T13:02:28.263Z,11.36
2019-02-14T13:04:21.074Z,11.33
2019-02-14T13:05:21.004Z,11.33
2019-02-14T13:07:12.906Z,11.39
2019-02-14T13:08:12.821Z,11.46
2019-02-14T13:10:04.824Z,11.53
2019-02-14T13:11:04.764Z,11.39
2019-02-14T13:12:57.498Z,11.41
2019-02-14T13:13:57.425Z,11.45
2019-02-14T13:15:50.269Z,11.38
2019-02-14T13:16:50.231Z,11.39
2019-02-14T13:18:42.965Z,11.35
2019-02-14T13:19:42.933Z,11.39
2019-02-14T13:21:35.738Z,11.36
2019-02-14T13:22:35.633Z,11.41
2019-02-14T13:24:28.486Z,11.41
2019-02-14T13:25:28.405Z,11.46
2019-02-14T13:27:21.238Z,11.45
2019-02-14T13:28:21.100Z,11.42
2019-02-14T13:30:13.899Z,11.39
2019-02-14T13:31:13.804Z,11.42
2019-02-14T13:33:05.710Z,11.36
2019-02-14T13:34:05.657Z,11.36
2019-02-14T13:35:57.514Z,11.39
2019-02-14T13:37:01.575Z,11.38
2019-02-14T13:38:49.222Z,11.33
2019-02-14T13:39:49.130Z,11.45
2019-02-14T13:41:41.031Z,11.48
2019-02-14T13:42:40.880Z,11.39
2019-02-14T13:44:32.781Z,11.38
2019-02-14T13:45:32.731Z,11.35
2019-02-14T13:47:24.515Z,11.38
2019-02-14T13:48:24.384Z,11.39
2019-02-14T13:50:16.222Z,11.33
2019-02-14T13:51:16.103Z,11.36
2019-02-14T13:53:07.951Z,11.36
2019-02-14T13:54:07.842Z,11.46
2019-02-14T13:55:59.734Z,11.38
2019-02-14T13:56:59.533Z,11.33
2019-02-14T13:58:51.293Z,11.39
2019-02-14T13:59:51.226Z,11.36
2019-02-14T14:01:43.014Z,11.31
2019-02-14T14:02:42.934Z,11.39
2019-02-14T14:04:34.697Z,11.45
2019-02-14T14:05:34.626Z,11.36
2019-02-14T14:07:26.484Z,11.41
2019-02-14T14:08:26.456Z,11.44
2019-02-14T14:10:18.146Z,11.51
2019-02-14T14:11:18.089Z,11.46
2019-02-14T14:13:10.044Z,11.39
2019-02-14T14:14:09.809Z,11.42
2019-02-14T14:16:01.799Z,11.46
2019-02-14T14:17:01.555Z,11.46
2019-02-14T14:18:53.315Z,11.41
2019-02-14T14:19:53.229Z,11.36
2019-02-14T14:21:45.191Z,11.35
2019-02-14T14:22:45.238Z,11.38
2019-02-14T14:24:36.862Z,11.31
2019-02-14T14:25:36.775Z,11.27
2019-02-14T14:27:28.616Z,11.39
2019-02-14T14:28:28.522Z,11.36
2019-02-14T14:30:20.283Z,11.39
2019-02-14T14:31:20.219Z,11.45
2019-02-14T14:33:11.995Z,11.41
2019-02-14T14:34:11.953Z,11.36
2019-02-14T14:36:03.796Z,11.41
2019-02-14T14:37:03.719Z,11.45
2019-02-14T14:38:55.528Z,11.31
2019-02-14T14:39:55.442Z,11.38
2019-02-14T14:41:47.441Z,11.30
2019-02-14T14:42:47.152Z,11.33
2019-02-14T14:44:39.008Z,11.35
2019-02-14T14:45:38.897Z,11.35
2019-02-14T14:47:30.708Z,11.33
2019-02-14T14:48:30.654Z,11.23
2019-02-14T14:50:22.435Z,11.28
2019-02-14T14:51:22.374Z,11.27
2019-02-14T14:53:14.157Z,11.31
2019-02-14T14:54:14.077Z,11.17
2019-02-14T14:56:05.862Z,11.17
2019-02-14T14:57:05.760Z,11.20
2019-02-14T14:58:57.583Z,11.23
2019-02-14T14:59:57.463Z,11.11
2019-02-14T15:01:49.232Z,11.08
2019-02-14T15:02:49.226Z,11.03
2019-02-14T15:04:40.913Z,11.01
2019-02-14T15:05:40.830Z,10.95
2019-02-14T15:07:32.675Z,10.98
2019-02-14T15:08:32.571Z,10.94
2019-02-14T15:10:24.413Z,10.93
2019-02-14T15:11:24.310Z,10.87
2019-02-14T15:13:16.091Z,10.87
2019-02-14T15:14:16.024Z,10.76
2019-02-14T15:16:07.886Z,10.83
2019-02-14T15:17:07.817Z,10.88
2019-02-14T15:18:59.681Z,10.83
2019-02-14T15:19:59.460Z,10.84
2019-02-14T15:21:51.314Z,10.62
2019-02-14T15:22:51.264Z,10.57
2019-02-14T15:24:43.004Z,10.60
2019-02-14T15:25:42.927Z,10.55
2019-02-14T15:27:35.051Z,10.54
2019-02-14T15:28:34.962Z,10.63
2019-02-14T15:30:26.843Z,10.54
2019-02-14T15:31:26.872Z,10.58
2019-02-14T15:33:18.599Z,10.54
2019-02-14T15:34:18.489Z,10.55
2019-02-14T15:36:10.355Z,10.52
2019-02-14T15:37:10.333Z,10.42
2019-02-14T15:39:03.216Z,10.44
2019-02-14T15:40:09.263Z,10.35
2019-02-14T15:41:56.228Z,10.36
2019-02-14T15:42:55.693Z,10.38
2019-02-14T15:44:47.620Z,10.34
2019-02-14T15:45:47.532Z,10.35
2019-02-14T15:47:39.345Z,10.25
2019-02-14T15:48:39.258Z,10.22
2019-02-14T15:50:32.174Z,10.14
2019-02-14T15:51:31.021Z,10.16
2019-02-14T15:53:22.906Z,10.07
2019-02-14T15:54:22.766Z,9.96
2019-02-14T15:56:14.818Z,9.98
2019-02-14T15:57:16.489Z,9.88
2019-02-14T15:59:06.672Z,9.99
2019-02-14T16:00:07.989Z,9.92
2019-02-14T16:01:58.490Z,9.92
2019-02-14T16:02:58.600Z,9.80
2019-02-14T16:04:50.846Z,9.85
2019-02-14T16:05:50.052Z,9.73
2019-02-14T16:07:41.882Z,9.67
2019-02-14T16:08:41.770Z,9.65
2019-02-14T16:10:33.533Z,9.77
2019-02-14T16:11:33.987Z,9.63
2019-02-14T16:13:25.618Z,9.45
2019-02-14T16:14:25.285Z,9.41
2019-02-14T16:16:20.138Z,9.35
2019-02-14T16:17:18.047Z,9.38
2019-02-14T16:19:10.948Z,9.35
2019-02-14T16:20:09.741Z,9.34
2019-02-14T16:22:01.492Z,9.17
2019-02-14T16:23:01.428Z,9.15
2019-02-14T16:24:54.501Z,9.01
2019-02-14T16:25:54.262Z,8.94
2019-02-14T16:27:48.121Z,8.83
2019-02-14T16:28:46.018Z,8.76
2019-02-14T16:30:37.796Z,8.73
2019-02-14T16:31:37.704Z,8.76
2019-02-14T16:33:29.534Z,8.71
2019-02-14T16:34:29.480Z,8.63
2019-02-14T16:36:22.726Z,8.68
2019-02-14T16:37:21.196Z,8.55
2019-02-14T16:39:12.957Z,8.57
2019-02-14T16:40:12.878Z,8.58
2019-02-14T16:42:04.699Z,8.57
2019-02-14T16:43:04.842Z,8.55
2019-02-14T16:44:56.576Z,8.49
2019-02-14T16:45:56.546Z,8.55
2019-02-14T16:47:48.893Z,8.45
2019-02-14T16:48:48.765Z,8.49
2019-02-14T16:50:41.609Z,8.32
2019-02-14T16:51:41.449Z,8.31
2019-02-14T16:53:33.348Z,8.17
2019-02-14T16:54:35.707Z,8.18
2019-02-14T16:56:25.129Z,8.12
2019-02-14T16:57:24.939Z,8.17
2019-02-14T16:59:16.777Z,8.10
2019-02-14T17:00:16.661Z,8.10
2019-02-14T17:02:08.528Z,8.18
2019-02-14T17:03:08.455Z,8.21
2019-02-14T17:05:00.388Z,8.28
2019-02-14T17:06:00.167Z,8.18
2019-02-14T17:07:52.062Z,8.17
2019-02-14T17:08:51.999Z,8.07
2019-02-14T17:10:43.804Z,7.96
2019-02-14T17:11:43.803Z,8.12
2019-02-14T17:13:35.529Z,8.12
2019-02-14T17:14:35.467Z,8.14
2019-02-14T17:16:27.200Z,8.00
2019-02-14T17:17:28.053Z,8.12
2019-02-14T17:19:18.990Z,8.02
2019-02-14T17:20:18.880Z,7.94
2019-02-14T17:22:10.802Z,7.94
2019-02-14T17:23:10.639Z,7.86
2019-02-14T17:25:02.708Z,7.79
2019-02-14T17:26:02.584Z,7.79
2019-02-14T17:27:54.375Z,7.62
2019-02-14T17:28:54.279Z,7.57
2019-02-14T17:30:46.060Z,7.66
2019-02-14T17:31:46.167Z,7.60
2019-02-14T17:33:37.769Z,7.63
2019-02-14T17:34:37.693Z,7.70
2019-02-14T17:36:29.574Z,7.71
2019-02-14T17:37:29.398Z,7.70
2019-02-14T17:39:22.300Z,7.82
2019-02-14T17:40:22.123Z,7.74
2019-02-14T17:42:13.996Z,7.81
2019-02-14T17:43:13.923Z,7.74
2019-02-14T17:45:05.716Z,7.76
2019-02-14T17:46:05.640Z,7.58
2019-02-14T17:47:57.423Z,7.57
2019-02-14T17:48:57.359Z,7.47
2019-02-14T17:50:49.285Z,7.16
2019-02-14T17:51:49.147Z,7.34
2019-02-14T17:53:41.029Z,7.15
2019-02-14T17:54:40.979Z,7.18
2019-02-14T17:56:32.760Z,7.11
2019-02-14T17:57:32.675Z,7.09
2019-02-14T17:59:24.488Z,7.09
2019-02-14T18:00:24.392Z,7.08
2019-02-14T18:02:16.259Z,7.12
2019-02-14T18:03:16.205Z,7.09
2019-02-14T18:05:08.121Z,7.08
2019-02-14T18:06:08.693Z,7.12
2019-02-14T18:08:00.032Z,7.09
2019-02-14T18:08:59.946Z,7.08
2019-02-14T18:10:54.871Z,7.09
2019-02-14T18:11:53.035Z,7.14
2019-02-14T18:13:44.837Z,7.18
2019-02-14T18:14:44.768Z,7.12
2019-02-14T18:16:36.581Z,7.23
2019-02-14T18:17:36.495Z,7.23
2019-02-14T18:19:28.215Z,7.19
2019-02-14T18:20:28.120Z,7.16
2019-02-14T18:22:19.889Z,7.07
2019-02-14T18:23:19.815Z,6.97
2019-02-14T18:25:11.702Z,6.89
2019-02-14T18:26:11.653Z,6.81
2019-02-14T18:28:03.512Z,6.76
2019-02-14T18:29:03.394Z,6.68
2019-02-14T18:30:55.147Z,6.58
2019-02-14T18:31:55.044Z,6.58
2019-02-14T18:33:46.929Z,6.63
2019-02-14T18:34:47.003Z,6.71
2019-02-14T18:36:38.582Z,6.60
2019-02-14T18:37:38.501Z,6.73
2019-02-14T18:39:30.328Z,6.76
2019-02-14T18:40:30.231Z,6.81
2019-02-14T18:42:22.107Z,6.73
2019-02-14T18:43:22.083Z,6.83
2019-02-14T18:45:13.851Z,6.82
2019-02-14T18:46:13.824Z,6.79
2019-02-14T18:48:05.546Z,6.78
2019-02-14T18:49:05.491Z,6.63
2019-02-14T18:50:59.242Z,6.73
2019-02-14T18:51:59.073Z,6.58
2019-02-14T18:53:50.932Z,6.60